sensor_id;sensor_type;location;lat;lon;timestamp;P1;durP1;ratioP1;P2;durP2;ratioP2
65053;SDS011;51639;47.828;35.038;2022-08-01T00:11:01;11.37;;;3.73;;
65053;SDS011;51639;47.828;35.038;2022-08-01T00:26:03;9.43;;;3.43;;
65053;SDS011;51639;47.828;35.038;2022-08-01T00:41:05;8.23;;;3.40;;
65053;SDS011;51639;47.828;35.038;2022-08-01T00:56:07;12.00;;;4.90;;
65053;SDS011;51639;47.828;35.038;2022-08-01T01:11:19;7.60;;;5.57;;
65053;SDS011;51639;47.828;35.038;2022-08-01T01:41:54;7.57;;;4.47;;
65053;SDS011;51639;47.828;35.038;2022-08-01T01:56:58;10.27;;;6.65;;
65053;SDS011;51639;47.828;35.038;2022-08-01T02:12:02;10.25;;;7.65;;
65053;SDS011;51639;47.828;35.038;2022-08-01T02:27:09;7.07;;;4.40;;
65053;SDS011;51639;47.828;35.038;2022-08-01T02:42:14;5.68;;;4.05;;
65053;SDS011;51639;47.828;35.038;2022-08-01T02:57:20;11.05;;;7.25;;
65053;SDS011;51639;47.828;35.038;2022-08-01T03:12:26;5.82;;;3.78;;
65053;SDS011;51639;47.828;35.038;2022-08-01T03:27:31;7.25;;;5.00;;
65053;SDS011;51639;47.828;35.038;2022-08-01T03:42:40;7.43;;;4.82;;
65053;SDS011;51639;47.828;35.038;2022-08-01T03:57:47;9.85;;;5.38;;
65053;SDS011;51639;47.828;35.038;2022-08-01T04:12:49;11.23;;;6.13;;
65053;SDS011;51639;47.828;35.038;2022-08-01T04:27:52;9.33;;;5.50;;
65053;SDS011;51639;47.828;35.038;2022-08-01T04:42:55;8.87;;;6.07;;
65053;SDS011;51639;47.828;35.038;2022-08-01T04:57:57;14.75;;;7.68;;
65053;SDS011;51639;47.828;35.038;2022-08-01T05:28:02;22.75;;;11.43;;
65053;SDS011;51639;47.828;35.038;2022-08-01T05:43:04;29.83;;;10.17;;
65053;SDS011;51639;47.828;35.038;2022-08-01T05:58:06;10.20;;;7.18;;
65053;SDS011;51639;47.828;35.038;2022-08-01T06:13:12;13.68;;;8.57;;
65053;SDS011;51639;47.828;35.038;2022-08-01T06:28:14;14.15;;;10.15;;
65053;SDS011;51639;47.828;35.038;2022-08-01T06:43:16;12.60;;;8.85;;
65053;SDS011;51639;47.828;35.038;2022-08-01T06:58:20;37.33;;;21.30;;
65053;SDS011;51639;47.828;35.038;2022-08-01T07:13:31;58.97;;;30.70;;
65053;SDS011;51639;47.828;35.038;2022-08-01T07:28:45;71.82;;;39.20;;
65053;SDS011;51639;47.828;35.038;2022-08-01T07:43:48;56.80;;;28.50;;
65053;SDS011;51639;47.828;35.038;2022-08-01T07:58:59;36.97;;;20.90;;
65053;SDS011;51639;47.828;35.038;2022-08-01T08:14:01;23.02;;;13.48;;
65053;SDS011;51639;47.828;35.038;2022-08-01T08:29:03;30.27;;;17.00;;
65053;SDS011;51639;47.828;35.038;2022-08-01T08:44:06;14.23;;;9.47;;
65053;SDS011;51639;47.828;35.038;2022-08-01T08:59:11;10.65;;;8.05;;
65053;SDS011;51639;47.828;35.038;2022-08-01T09:14:15;13.23;;;7.30;;
65053;SDS011;51639;47.828;35.038;2022-08-01T09:29:26;9.90;;;6.53;;
65053;SDS011;51639;47.828;35.038;2022-08-01T09:44:42;11.55;;;7.30;;
65053;SDS011;51639;47.828;35.038;2022-08-01T09:59:56;7.30;;;5.18;;
65053;SDS011;51639;47.828;35.038;2022-08-01T10:15:02;6.68;;;4.65;;
65053;SDS011;51639;47.828;35.038;2022-08-01T10:30:05;8.07;;;5.75;;
65053;SDS011;51639;47.828;35.038;2022-08-01T10:45:24;9.82;;;5.15;;
65053;SDS011;51639;47.828;35.038;2022-08-01T11:00:30;11.45;;;6.40;;
65053;SDS011;51639;47.828;35.038;2022-08-01T11:15:34;13.23;;;6.83;;
65053;SDS011;51639;47.828;35.038;2022-08-01T11:30:51;11.43;;;6.50;;
65053;SDS011;51639;47.828;35.038;2022-08-01T11:45:56;14.35;;;8.50;;
65053;SDS011;51639;47.828;35.038;2022-08-01T12:00:58;16.48;;;10.25;;
65053;SDS011;51639;47.828;35.038;2022-08-01T12:16:06;11.27;;;8.00;;
65053;SDS011;51639;47.828;35.038;2022-08-01T12:31:09;14.80;;;8.57;;
65053;SDS011;51639;47.828;35.038;2022-08-01T12:46:13;14.82;;;10.10;;
65053;SDS011;51639;47.828;35.038;2022-08-01T13:01:24;15.15;;;9.48;;
65053;SDS011;51639;47.828;35.038;2022-08-01T13:16:27;16.52;;;9.65;;
65053;SDS011;51639;47.828;35.038;2022-08-01T13:31:49;16.20;;;9.45;;
65053;SDS011;51639;47.828;35.038;2022-08-01T13:46:51;15.48;;;9.30;;
65053;SDS011;51639;47.828;35.038;2022-08-01T14:01:55;12.37;;;6.87;;
65053;SDS011;51639;47.828;35.038;2022-08-01T14:32:00;10.63;;;6.53;;
65053;SDS011;51639;47.828;35.038;2022-08-01T14:47:03;11.77;;;7.20;;
65053;SDS011;51639;47.828;35.038;2022-08-01T15:02:22;8.77;;;5.22;;
65053;SDS011;51639;47.828;35.038;2022-08-01T15:17:25;7.75;;;5.13;;
65053;SDS011;51639;47.828;35.038;2022-08-01T15:32:32;8.68;;;5.18;;
65053;SDS011;51639;47.828;35.038;2022-08-01T15:47:34;8.18;;;4.85;;
65053;SDS011;51639;47.828;35.038;2022-08-01T16:02:36;8.82;;;5.85;;
65053;SDS011;51639;47.828;35.038;2022-08-01T16:17:39;11.63;;;6.27;;
65053;SDS011;51639;47.828;35.038;2022-08-01T16:32:45;9.73;;;6.05;;
65053;SDS011;51639;47.828;35.038;2022-08-01T16:47:52;6.25;;;3.80;;
65053;SDS011;51639;47.828;35.038;2022-08-01T17:02:55;6.20;;;3.70;;
65053;SDS011;51639;47.828;35.038;2022-08-01T17:17:57;11.77;;;5.90;;
65053;SDS011;51639;47.828;35.038;2022-08-01T17:32:59;40.33;;;21.08;;
65053;SDS011;51639;47.828;35.038;2022-08-01T17:48:01;19.38;;;10.25;;
65053;SDS011;51639;47.828;35.038;2022-08-01T18:03:03;13.82;;;7.43;;
65053;SDS011;51639;47.828;35.038;2022-08-01T18:18:08;14.75;;;8.25;;
65053;SDS011;51639;47.828;35.038;2022-08-01T18:33:14;9.30;;;5.50;;
65053;SDS011;51639;47.828;35.038;2022-08-01T18:48:16;9.65;;;6.55;;
65053;SDS011;51639;47.828;35.038;2022-08-01T19:03:18;7.70;;;5.45;;
65053;SDS011;51639;47.828;35.038;2022-08-01T19:18:21;8.45;;;5.90;;
65053;SDS011;51639;47.828;35.038;2022-08-01T19:33:23;10.10;;;6.60;;
65053;SDS011;51639;47.828;35.038;2022-08-01T19:48:27;9.60;;;6.22;;
65053;SDS011;51639;47.828;35.038;2022-08-01T20:03:29;9.88;;;6.50;;
65053;SDS011;51639;47.828;35.038;2022-08-01T20:18:34;9.32;;;6.40;;
65053;SDS011;51639;47.828;35.038;2022-08-01T20:33:40;9.18;;;6.15;;
65053;SDS011;51639;47.828;35.038;2022-08-01T20:48:45;10.18;;;7.45;;
65053;SDS011;51639;47.828;35.038;2022-08-01T21:19:24;11.55;;;7.78;;
65053;SDS011;51639;47.828;35.038;2022-08-01T21:34:28;10.90;;;6.15;;
65053;SDS011;51639;47.828;35.038;2022-08-01T22:05:56;9.70;;;6.40;;
65053;SDS011;51639;47.828;35.038;2022-08-01T22:21:02;8.40;;;5.57;;
65053;SDS011;51639;47.828;35.038;2022-08-01T22:36:04;7.38;;;4.38;;
65053;SDS011;51639;47.828;35.038;2022-08-01T22:51:15;7.00;;;5.10;;
65053;SDS011;51639;47.828;35.038;2022-08-01T23:06:40;7.72;;;5.15;;
65053;SDS011;51639;47.828;35.038;2022-08-01T23:21:43;6.57;;;4.47;;
65053;SDS011;51639;47.828;35.038;2022-08-01T23:36:45;3.70;;;2.88;;
65053;SDS011;51639;47.828;35.038;2022-08-01T23:51:47;5.72;;;3.10;;
